sensor_id;sensor_type;location;lat;lon;timestamp;P1;durP1;ratioP1;P2;durP2;ratioP2
4758;SDS011;2393;50.560;12.636;2022-10-17T00:01:14;0.40;;;0.40;;
4758;SDS011;2393;50.560;12.636;2022-10-17T00:03:42;0.77;;;0.73;;
4758;SDS011;2393;50.560;12.636;2022-10-17T00:06:11;0.40;;;0.40;;
4758;SDS011;2393;50.560;12.636;2022-10-17T00:08:42;0.70;;;0.70;;
4758;SDS011;2393;50.560;12.636;2022-10-17T00:11:12;0.60;;;0.60;;
4758;SDS011;2393;50.560;12.636;2022-10-17T00:13:42;2.63;;;0.70;;
4758;SDS011;2393;50.560;12.636;2022-10-17T00:16:11;0.60;;;0.60;;
4758;SDS011;2393;50.560;12.636;2022-10-17T00:18:39;2.50;;;0.50;;
4758;SDS011;2393;50.560;12.636;2022-10-17T00:21:13;0.60;;;0.60;;
4758;SDS011;2393;50.560;12.636;2022-10-17T00:23:43;2.60;;;0.87;;
4758;SDS011;2393;50.560;12.636;2022-10-17T00:26:11;6.73;;;0.57;;
4758;SDS011;2393;50.560;12.636;2022-10-17T00:28:44;0.50;;;0.50;;
4758;SDS011;2393;50.560;12.636;2022-10-17T00:31:13;0.73;;;0.73;;
4758;SDS011;2393;50.560;12.636;2022-10-17T00:33:42;1.13;;;0.67;;
4758;SDS011;2393;50.560;12.636;2022-10-17T00:36:12;3.27;;;0.80;;
4758;SDS011;2393;50.560;12.636;2022-10-17T00:38:44;0.73;;;0.73;;
4758;SDS011;2393;50.560;12.636;2022-10-17T00:41:14;1.80;;;0.90;;
4758;SDS011;2393;50.560;12.636;2022-10-17T00:43:48;1.70;;;1.00;;
4758;SDS011;2393;50.560;12.636;2022-10-17T00:46:22;0.93;;;0.93;;
4758;SDS011;2393;50.560;12.636;2022-10-17T00:48:54;0.80;;;0.80;;
4758;SDS011;2393;50.560;12.636;2022-10-17T00:51:25;0.90;;;0.90;;
4758;SDS011;2393;50.560;12.636;2022-10-17T00:53:59;0.73;;;0.73;;
4758;SDS011;2393;50.560;12.636;2022-10-17T00:56:29;1.30;;;1.10;;
4758;SDS011;2393;50.560;12.636;2022-10-17T00:58:58;6.03;;;0.73;;
4758;SDS011;2393;50.560;12.636;2022-10-17T01:01:26;0.70;;;0.70;;
4758;SDS011;2393;50.560;12.636;2022-10-17T01:03:58;0.80;;;0.80;;
4758;SDS011;2393;50.560;12.636;2022-10-17T01:06:27;1.63;;;0.50;;
4758;SDS011;2393;50.560;12.636;2022-10-17T01:08:55;1.17;;;0.57;;
4758;SDS011;2393;50.560;12.636;2022-10-17T01:11:28;0.50;;;0.50;;
4758;SDS011;2393;50.560;12.636;2022-10-17T01:14:08;1.17;;;0.60;;
4758;SDS011;2393;50.560;12.636;2022-10-17T01:16:43;0.37;;;0.30;;
4758;SDS011;2393;50.560;12.636;2022-10-17T01:19:25;0.63;;;0.63;;
4758;SDS011;2393;50.560;12.636;2022-10-17T01:22:02;0.73;;;0.73;;
4758;SDS011;2393;50.560;12.636;2022-10-17T01:24:45;0.57;;;0.57;;
4758;SDS011;2393;50.560;12.636;2022-10-17T01:27:22;2.83;;;0.50;;
4758;SDS011;2393;50.560;12.636;2022-10-17T01:29:58;0.60;;;0.60;;
4758;SDS011;2393;50.560;12.636;2022-10-17T01:32:43;5.40;;;0.53;;
4758;SDS011;2393;50.560;12.636;2022-10-17T01:35:15;0.63;;;0.37;;
4758;SDS011;2393;50.560;12.636;2022-10-17T01:37:50;1.43;;;0.40;;
4758;SDS011;2393;50.560;12.636;2022-10-17T01:40:23;0.40;;;0.40;;
4758;SDS011;2393;50.560;12.636;2022-10-17T01:42:57;0.30;;;0.30;;
4758;SDS011;2393;50.560;12.636;2022-10-17T01:45:38;0.40;;;0.40;;
4758;SDS011;2393;50.560;12.636;2022-10-17T01:48:12;0.30;;;0.30;;
4758;SDS011;2393;50.560;12.636;2022-10-17T01:50:45;0.47;;;0.47;;
4758;SDS011;2393;50.560;12.636;2022-10-17T01:53:18;0.50;;;0.40;;
4758;SDS011;2393;50.560;12.636;2022-10-17T01:55:50;0.63;;;0.40;;
4758;SDS011;2393;50.560;12.636;2022-10-17T01:58:28;0.53;;;0.40;;
4758;SDS011;2393;50.560;12.636;2022-10-17T02:01:00;0.50;;;0.30;;
4758;SDS011;2393;50.560;12.636;2022-10-17T02:03:32;2.53;;;0.53;;
4758;SDS011;2393;50.560;12.636;2022-10-17T02:06:04;9.20;;;0.50;;
4758;SDS011;2393;50.560;12.636;2022-10-17T02:08:39;1.00;;;0.30;;
4758;SDS011;2393;50.560;12.636;2022-10-17T02:11:10;1.37;;;0.53;;
4758;SDS011;2393;50.560;12.636;2022-10-17T02:13:45;2.97;;;0.50;;
4758;SDS011;2393;50.560;12.636;2022-10-17T02:16:31;0.50;;;0.50;;
4758;SDS011;2393;50.560;12.636;2022-10-17T02:19:08;0.50;;;0.40;;
4758;SDS011;2393;50.560;12.636;2022-10-17T02:21:52;0.40;;;0.30;;
4758;SDS011;2393;50.560;12.636;2022-10-17T02:24:31;0.87;;;0.43;;
4758;SDS011;2393;50.560;12.636;2022-10-17T02:27:07;1.43;;;0.30;;
4758;SDS011;2393;50.560;12.636;2022-10-17T02:29:43;0.83;;;0.50;;
4758;SDS011;2393;50.560;12.636;2022-10-17T02:32:16;1.30;;;0.30;;
4758;SDS011;2393;50.560;12.636;2022-10-17T02:34:53;3.80;;;0.60;;
4758;SDS011;2393;50.560;12.636;2022-10-17T02:37:24;0.30;;;0.20;;
4758;SDS011;2393;50.560;12.636;2022-10-17T02:39:56;1.47;;;0.40;;
4758;SDS011;2393;50.560;12.636;2022-10-17T02:42:26;0.70;;;0.43;;
4758;SDS011;2393;50.560;12.636;2022-10-17T02:44:57;0.40;;;0.30;;
4758;SDS011;2393;50.560;12.636;2022-10-17T02:47:28;0.40;;;0.40;;
4758;SDS011;2393;50.560;12.636;2022-10-17T02:50:00;0.40;;;0.40;;
4758;SDS011;2393;50.560;12.636;2022-10-17T02:52:31;0.33;;;0.30;;
4758;SDS011;2393;50.560;12.636;2022-10-17T02:55:06;0.50;;;0.33;;
4758;SDS011;2393;50.560;12.636;2022-10-17T02:57:39;0.40;;;0.40;;
4758;SDS011;2393;50.560;12.636;2022-10-17T03:00:12;1.20;;;0.60;;
4758;SDS011;2393;50.560;12.636;2022-10-17T03:02:46;0.40;;;0.40;;
4758;SDS011;2393;50.560;12.636;2022-10-17T03:05:17;2.00;;;0.40;;
4758;SDS011;2393;50.560;12.636;2022-10-17T03:07:47;0.40;;;0.20;;
4758;SDS011;2393;50.560;12.636;2022-10-17T03:10:15;0.50;;;0.40;;
4758;SDS011;2393;50.560;12.636;2022-10-17T03:12:43;0.30;;;0.30;;
4758;SDS011;2393;50.560;12.636;2022-10-17T03:15:12;0.63;;;0.40;;
4758;SDS011;2393;50.560;12.636;2022-10-17T03:17:41;2.93;;;0.37;;
4758;SDS011;2393;50.560;12.636;2022-10-17T03:20:16;0.53;;;0.40;;
4758;SDS011;2393;50.560;12.636;2022-10-17T03:22:44;1.43;;;0.20;;
4758;SDS011;2393;50.560;12.636;2022-10-17T03:25:12;3.40;;;0.50;;
4758;SDS011;2393;50.560;12.636;2022-10-17T03:27:42;3.70;;;0.60;;
4758;SDS011;2393;50.560;12.636;2022-10-17T03:30:10;2.83;;;0.40;;
4758;SDS011;2393;50.560;12.636;2022-10-17T03:32:39;0.60;;;0.40;;
4758;SDS011;2393;50.560;12.636;2022-10-17T03:35:07;0.40;;;0.30;;
4758;SDS011;2393;50.560;12.636;2022-10-17T03:37:43;1.17;;;0.40;;
4758;SDS011;2393;50.560;12.636;2022-10-17T03:40:12;0.40;;;0.40;;
4758;SDS011;2393;50.560;12.636;2022-10-17T03:42:42;0.40;;;0.30;;
4758;SDS011;2393;50.560;12.636;2022-10-17T03:45:10;0.70;;;0.70;;
4758;SDS011;2393;50.560;12.636;2022-10-17T03:47:38;4.40;;;0.37;;
4758;SDS011;2393;50.560;12.636;2022-10-17T03:50:06;0.40;;;0.33;;
4758;SDS011;2393;50.560;12.636;2022-10-17T03:52:36;0.90;;;0.50;;
4758;SDS011;2393;50.560;12.636;2022-10-17T03:55:06;0.43;;;0.40;;
4758;SDS011;2393;50.560;12.636;2022-10-17T03:57:35;0.50;;;0.30;;
4758;SDS011;2393;50.560;12.636;2022-10-17T04:00:08;0.50;;;0.47;;
4758;SDS011;2393;50.560;12.636;2022-10-17T04:02:40;1.60;;;0.50;;
4758;SDS011;2393;50.560;12.636;2022-10-17T04:05:16;0.60;;;0.60;;
4758;SDS011;2393;50.560;12.636;2022-10-17T04:07:45;0.40;;;0.40;;
4758;SDS011;2393;50.560;12.636;2022-10-17T04:10:16;0.50;;;0.50;;
4758;SDS011;2393;50.560;12.636;2022-10-17T04:12:46;3.27;;;0.70;;
4758;SDS011;2393;50.560;12.636;2022-10-17T04:15:14;3.03;;;0.33;;
4758;SDS011;2393;50.560;12.636;2022-10-17T04:17:43;0.50;;;0.40;;
4758;SDS011;2393;50.560;12.636;2022-10-17T04:20:14;0.37;;;0.37;;
4758;SDS011;2393;50.560;12.636;2022-10-17T04:22:42;1.60;;;0.50;;
4758;SDS011;2393;50.560;12.636;2022-10-17T04:25:11;0.60;;;0.60;;
4758;SDS011;2393;50.560;12.636;2022-10-17T04:27:44;0.60;;;0.30;;
4758;SDS011;2393;50.560;12.636;2022-10-17T04:30:14;0.67;;;0.30;;
4758;SDS011;2393;50.560;12.636;2022-10-17T04:32:43;0.40;;;0.30;;
4758;SDS011;2393;50.560;12.636;2022-10-17T04:35:17;0.40;;;0.33;;
4758;SDS011;2393;50.560;12.636;2022-10-17T04:37:51;0.70;;;0.50;;
4758;SDS011;2393;50.560;12.636;2022-10-17T04:40:19;0.70;;;0.70;;
4758;SDS011;2393;50.560;12.636;2022-10-17T04:42:51;0.60;;;0.40;;
4758;SDS011;2393;50.560;12.636;2022-10-17T04:45:27;2.27;;;0.30;;
4758;SDS011;2393;50.560;12.636;2022-10-17T04:48:05;0.43;;;0.40;;
4758;SDS011;2393;50.560;12.636;2022-10-17T04:50:33;1.43;;;0.50;;
4758;SDS011;2393;50.560;12.636;2022-10-17T04:53:30;0.50;;;0.50;;
4758;SDS011;2393;50.560;12.636;2022-10-17T04:56:00;0.40;;;0.20;;
4758;SDS011;2393;50.560;12.636;2022-10-17T04:58:35;1.13;;;0.60;;
4758;SDS011;2393;50.560;12.636;2022-10-17T05:01:04;0.50;;;0.40;;
4758;SDS011;2393;50.560;12.636;2022-10-17T05:03:50;0.40;;;0.37;;
4758;SDS011;2393;50.560;12.636;2022-10-17T05:06:22;0.40;;;0.30;;
4758;SDS011;2393;50.560;12.636;2022-10-17T05:09:13;0.97;;;0.40;;
4758;SDS011;2393;50.560;12.636;2022-10-17T05:11:42;0.83;;;0.30;;
4758;SDS011;2393;50.560;12.636;2022-10-17T05:14:13;0.37;;;0.30;;
4758;SDS011;2393;50.560;12.636;2022-10-17T05:16:47;6.40;;;0.50;;
4758;SDS011;2393;50.560;12.636;2022-10-17T05:19:27;0.40;;;0.30;;
4758;SDS011;2393;50.560;12.636;2022-10-17T05:22:16;0.60;;;0.30;;
4758;SDS011;2393;50.560;12.636;2022-10-17T05:24:45;0.60;;;0.60;;
4758;SDS011;2393;50.560;12.636;2022-10-17T05:27:15;0.40;;;0.30;;
4758;SDS011;2393;50.560;12.636;2022-10-17T05:33:04;0.60;;;0.60;;
4758;SDS011;2393;50.560;12.636;2022-10-17T05:35:33;0.43;;;0.43;;
4758;SDS011;2393;50.560;12.636;2022-10-17T05:38:01;0.40;;;0.30;;
4758;SDS011;2393;50.560;12.636;2022-10-17T05:40:36;0.40;;;0.30;;
4758;SDS011;2393;50.560;12.636;2022-10-17T05:43:09;0.40;;;0.30;;
4758;SDS011;2393;50.560;12.636;2022-10-17T05:45:39;0.67;;;0.30;;
4758;SDS011;2393;50.560;12.636;2022-10-17T05:48:21;0.40;;;0.30;;
4758;SDS011;2393;50.560;12.636;2022-10-17T05:50:55;0.70;;;0.40;;
4758;SDS011;2393;50.560;12.636;2022-10-17T05:53:28;0.30;;;0.30;;
4758;SDS011;2393;50.560;12.636;2022-10-17T05:56:11;0.40;;;0.40;;
4758;SDS011;2393;50.560;12.636;2022-10-17T05:58:41;0.40;;;0.40;;
4758;SDS011;2393;50.560;12.636;2022-10-17T06:01:45;1.37;;;0.40;;
4758;SDS011;2393;50.560;12.636;2022-10-17T06:04:19;4.30;;;0.40;;
4758;SDS011;2393;50.560;12.636;2022-10-17T06:06:59;0.40;;;0.30;;
4758;SDS011;2393;50.560;12.636;2022-10-17T06:09:34;0.80;;;0.30;;
4758;SDS011;2393;50.560;12.636;2022-10-17T06:12:32;0.40;;;0.30;;
4758;SDS011;2393;50.560;12.636;2022-10-17T06:15:11;0.40;;;0.30;;
4758;SDS011;2393;50.560;12.636;2022-10-17T06:17:44;0.40;;;0.30;;
4758;SDS011;2393;50.560;12.636;2022-10-17T06:20:25;0.40;;;0.30;;
4758;SDS011;2393;50.560;12.636;2022-10-17T06:23:30;0.70;;;0.37;;
4758;SDS011;2393;50.560;12.636;2022-10-17T06:26:36;7.43;;;0.30;;
4758;SDS011;2393;50.560;12.636;2022-10-17T06:30:10;0.40;;;0.30;;
4758;SDS011;2393;50.560;12.636;2022-10-17T06:32:50;0.47;;;0.30;;
4758;SDS011;2393;50.560;12.636;2022-10-17T06:35:36;0.80;;;0.30;;
4758;SDS011;2393;50.560;12.636;2022-10-17T06:38:12;0.80;;;0.30;;
4758;SDS011;2393;50.560;12.636;2022-10-17T06:44:02;0.50;;;0.50;;
4758;SDS011;2393;50.560;12.636;2022-10-17T06:47:43;5.60;;;2.33;;
4758;SDS011;2393;50.560;12.636;2022-10-17T06:50:43;0.50;;;0.50;;
4758;SDS011;2393;50.560;12.636;2022-10-17T06:53:57;0.30;;;0.20;;
4758;SDS011;2393;50.560;12.636;2022-10-17T06:56:54;0.40;;;0.30;;
4758;SDS011;2393;50.560;12.636;2022-10-17T06:59:40;2.00;;;0.40;;
4758;SDS011;2393;50.560;12.636;2022-10-17T07:02:48;0.50;;;0.30;;
4758;SDS011;2393;50.560;12.636;2022-10-17T07:05:28;0.90;;;0.90;;
4758;SDS011;2393;50.560;12.636;2022-10-17T07:07:57;3.43;;;1.77;;
4758;SDS011;2393;50.560;12.636;2022-10-17T07:10:36;0.73;;;0.40;;
4758;SDS011;2393;50.560;12.636;2022-10-17T07:13:06;0.60;;;0.43;;
4758;SDS011;2393;50.560;12.636;2022-10-17T07:15:35;0.50;;;0.40;;
4758;SDS011;2393;50.560;12.636;2022-10-17T07:18:06;0.40;;;0.27;;
4758;SDS011;2393;50.560;12.636;2022-10-17T07:20:34;0.30;;;0.20;;
4758;SDS011;2393;50.560;12.636;2022-10-17T07:23:03;0.43;;;0.37;;
4758;SDS011;2393;50.560;12.636;2022-10-17T07:25:31;0.50;;;0.30;;
4758;SDS011;2393;50.560;12.636;2022-10-17T07:28:06;7.73;;;0.47;;
4758;SDS011;2393;50.560;12.636;2022-10-17T07:30:36;0.50;;;0.30;;
4758;SDS011;2393;50.560;12.636;2022-10-17T07:33:11;0.90;;;0.50;;
4758;SDS011;2393;50.560;12.636;2022-10-17T07:35:39;0.40;;;0.30;;
4758;SDS011;2393;50.560;12.636;2022-10-17T07:38:08;3.23;;;0.40;;
4758;SDS011;2393;50.560;12.636;2022-10-17T07:40:36;3.00;;;0.70;;
4758;SDS011;2393;50.560;12.636;2022-10-17T07:43:05;0.30;;;0.20;;
4758;SDS011;2393;50.560;12.636;2022-10-17T07:45:33;0.60;;;0.30;;
4758;SDS011;2393;50.560;12.636;2022-10-17T07:48:01;0.60;;;0.30;;
4758;SDS011;2393;50.560;12.636;2022-10-17T07:50:31;0.83;;;0.50;;
4758;SDS011;2393;50.560;12.636;2022-10-17T07:52:59;0.80;;;0.30;;
4758;SDS011;2393;50.560;12.636;2022-10-17T07:55:27;0.77;;;0.40;;
4758;SDS011;2393;50.560;12.636;2022-10-17T07:57:55;0.60;;;0.30;;
4758;SDS011;2393;50.560;12.636;2022-10-17T08:00:25;0.40;;;0.20;;
4758;SDS011;2393;50.560;12.636;2022-10-17T08:02:53;0.40;;;0.30;;
4758;SDS011;2393;50.560;12.636;2022-10-17T08:05:21;0.40;;;0.23;;
4758;SDS011;2393;50.560;12.636;2022-10-17T08:07:51;1.23;;;0.20;;
4758;SDS011;2393;50.560;12.636;2022-10-17T08:10:19;0.57;;;0.30;;
4758;SDS011;2393;50.560;12.636;2022-10-17T08:12:48;1.57;;;0.30;;
4758;SDS011;2393;50.560;12.636;2022-10-17T08:15:16;2.50;;;0.20;;
4758;SDS011;2393;50.560;12.636;2022-10-17T08:17:45;0.40;;;0.20;;
4758;SDS011;2393;50.560;12.636;2022-10-17T08:20:14;3.00;;;0.20;;
4758;SDS011;2393;50.560;12.636;2022-10-17T08:22:42;1.43;;;0.30;;
4758;SDS011;2393;50.560;12.636;2022-10-17T08:25:18;0.50;;;0.20;;
4758;SDS011;2393;50.560;12.636;2022-10-17T08:27:47;0.50;;;0.30;;
4758;SDS011;2393;50.560;12.636;2022-10-17T08:30:16;0.93;;;0.30;;
4758;SDS011;2393;50.560;12.636;2022-10-17T08:32:44;0.40;;;0.30;;
4758;SDS011;2393;50.560;12.636;2022-10-17T08:35:12;1.63;;;0.30;;
4758;SDS011;2393;50.560;12.636;2022-10-17T08:37:43;0.40;;;0.30;;
4758;SDS011;2393;50.560;12.636;2022-10-17T08:40:14;0.40;;;0.20;;
4758;SDS011;2393;50.560;12.636;2022-10-17T08:42:57;0.97;;;0.73;;
4758;SDS011;2393;50.560;12.636;2022-10-17T08:45:34;4.53;;;0.33;;
4758;SDS011;2393;50.560;12.636;2022-10-17T08:48:08;0.40;;;0.30;;
4758;SDS011;2393;50.560;12.636;2022-10-17T08:50:41;0.40;;;0.30;;
4758;SDS011;2393;50.560;12.636;2022-10-17T08:53:13;1.40;;;0.33;;
4758;SDS011;2393;50.560;12.636;2022-10-17T08:55:46;0.97;;;0.40;;
4758;SDS011;2393;50.560;12.636;2022-10-17T08:58:17;0.40;;;0.20;;
4758;SDS011;2393;50.560;12.636;2022-10-17T09:00:52;0.73;;;0.33;;
4758;SDS011;2393;50.560;12.636;2022-10-17T09:03:41;0.83;;;0.20;;
4758;SDS011;2393;50.560;12.636;2022-10-17T09:06:17;0.40;;;0.30;;
4758;SDS011;2393;50.560;12.636;2022-10-17T09:08:52;1.90;;;0.30;;
4758;SDS011;2393;50.560;12.636;2022-10-17T09:11:43;0.40;;;0.20;;
4758;SDS011;2393;50.560;12.636;2022-10-17T09:14:25;3.13;;;0.30;;
4758;SDS011;2393;50.560;12.636;2022-10-17T09:17:07;0.40;;;0.30;;
4758;SDS011;2393;50.560;12.636;2022-10-17T09:19:57;4.07;;;0.43;;
4758;SDS011;2393;50.560;12.636;2022-10-17T09:22:31;0.50;;;0.33;;
4758;SDS011;2393;50.560;12.636;2022-10-17T09:25:08;0.40;;;0.30;;
4758;SDS011;2393;50.560;12.636;2022-10-17T09:27:39;0.67;;;0.40;;
4758;SDS011;2393;50.560;12.636;2022-10-17T09:30:16;0.80;;;0.30;;
4758;SDS011;2393;50.560;12.636;2022-10-17T09:33:12;2.13;;;0.40;;
4758;SDS011;2393;50.560;12.636;2022-10-17T09:36:03;0.40;;;0.20;;
4758;SDS011;2393;50.560;12.636;2022-10-17T09:38:37;0.63;;;0.20;;
4758;SDS011;2393;50.560;12.636;2022-10-17T09:41:11;0.40;;;0.20;;
4758;SDS011;2393;50.560;12.636;2022-10-17T09:44:16;0.30;;;0.20;;
4758;SDS011;2393;50.560;12.636;2022-10-17T09:47:06;2.23;;;0.30;;
4758;SDS011;2393;50.560;12.636;2022-10-17T09:49:45;0.40;;;0.30;;
4758;SDS011;2393;50.560;12.636;2022-10-17T09:52:15;2.97;;;0.20;;
4758;SDS011;2393;50.560;12.636;2022-10-17T09:54:45;0.90;;;0.70;;
4758;SDS011;2393;50.560;12.636;2022-10-17T09:57:15;0.90;;;0.30;;
4758;SDS011;2393;50.560;12.636;2022-10-17T09:59:45;0.50;;;0.40;;
4758;SDS011;2393;50.560;12.636;2022-10-17T10:02:23;0.40;;;0.33;;
4758;SDS011;2393;50.560;12.636;2022-10-17T10:04:57;4.03;;;0.30;;
4758;SDS011;2393;50.560;12.636;2022-10-17T10:07:32;0.40;;;0.27;;
4758;SDS011;2393;50.560;12.636;2022-10-17T10:10:02;0.40;;;0.30;;
4758;SDS011;2393;50.560;12.636;2022-10-17T10:12:33;0.40;;;0.30;;
4758;SDS011;2393;50.560;12.636;2022-10-17T10:15:08;1.20;;;0.30;;
4758;SDS011;2393;50.560;12.636;2022-10-17T10:17:59;0.80;;;0.30;;
4758;SDS011;2393;50.560;12.636;2022-10-17T10:20:29;2.43;;;0.20;;
4758;SDS011;2393;50.560;12.636;2022-10-17T10:23:06;1.77;;;0.30;;
4758;SDS011;2393;50.560;12.636;2022-10-17T10:25:48;1.03;;;0.30;;
4758;SDS011;2393;50.560;12.636;2022-10-17T10:28:20;0.40;;;0.30;;
4758;SDS011;2393;50.560;12.636;2022-10-17T10:30:52;0.40;;;0.30;;
4758;SDS011;2393;50.560;12.636;2022-10-17T10:33:25;1.63;;;0.50;;
4758;SDS011;2393;50.560;12.636;2022-10-17T10:35:56;0.70;;;0.40;;
4758;SDS011;2393;50.560;12.636;2022-10-17T10:38:27;0.40;;;0.20;;
4758;SDS011;2393;50.560;12.636;2022-10-17T10:40:56;8.80;;;0.40;;
4758;SDS011;2393;50.560;12.636;2022-10-17T10:43:33;1.07;;;0.30;;
4758;SDS011;2393;50.560;12.636;2022-10-17T10:46:04;0.40;;;0.33;;
4758;SDS011;2393;50.560;12.636;2022-10-17T10:48:50;0.70;;;0.33;;
4758;SDS011;2393;50.560;12.636;2022-10-17T10:51:22;0.30;;;0.20;;
4758;SDS011;2393;50.560;12.636;2022-10-17T10:53:58;0.70;;;0.20;;
4758;SDS011;2393;50.560;12.636;2022-10-17T10:56:30;3.33;;;0.30;;
4758;SDS011;2393;50.560;12.636;2022-10-17T10:59:02;0.57;;;0.57;;
4758;SDS011;2393;50.560;12.636;2022-10-17T11:01:38;0.40;;;0.30;;
4758;SDS011;2393;50.560;12.636;2022-10-17T11:04:22;0.30;;;0.20;;
4758;SDS011;2393;50.560;12.636;2022-10-17T11:06:57;0.93;;;0.77;;
4758;SDS011;2393;50.560;12.636;2022-10-17T11:09:31;1.33;;;0.40;;
4758;SDS011;2393;50.560;12.636;2022-10-17T11:12:10;3.17;;;0.43;;
4758;SDS011;2393;50.560;12.636;2022-10-17T11:14:45;1.33;;;0.40;;
4758;SDS011;2393;50.560;12.636;2022-10-17T11:17:21;2.10;;;0.40;;
4758;SDS011;2393;50.560;12.636;2022-10-17T11:20:02;0.40;;;0.20;;
4758;SDS011;2393;50.560;12.636;2022-10-17T11:22:37;0.40;;;0.30;;
4758;SDS011;2393;50.560;12.636;2022-10-17T11:25:13;0.60;;;0.60;;
4758;SDS011;2393;50.560;12.636;2022-10-17T11:27:49;0.40;;;0.20;;
4758;SDS011;2393;50.560;12.636;2022-10-17T11:30:17;0.40;;;0.30;;
4758;SDS011;2393;50.560;12.636;2022-10-17T11:32:47;0.50;;;0.40;;
4758;SDS011;2393;50.560;12.636;2022-10-17T11:35:22;0.80;;;0.30;;
4758;SDS011;2393;50.560;12.636;2022-10-17T11:37:54;0.57;;;0.53;;
4758;SDS011;2393;50.560;12.636;2022-10-17T11:40:30;1.90;;;0.33;;
4758;SDS011;2393;50.560;12.636;2022-10-17T11:43:04;1.07;;;0.53;;
4758;SDS011;2393;50.560;12.636;2022-10-17T11:45:39;0.50;;;0.50;;
4758;SDS011;2393;50.560;12.636;2022-10-17T11:48:11;0.30;;;0.20;;
4758;SDS011;2393;50.560;12.636;2022-10-17T11:50:46;2.93;;;0.37;;
4758;SDS011;2393;50.560;12.636;2022-10-17T11:53:49;1.00;;;0.40;;
4758;SDS011;2393;50.560;12.636;2022-10-17T11:56:24;0.60;;;0.30;;
4758;SDS011;2393;50.560;12.636;2022-10-17T11:59:00;0.43;;;0.43;;
4758;SDS011;2393;50.560;12.636;2022-10-17T12:01:40;2.10;;;0.30;;
4758;SDS011;2393;50.560;12.636;2022-10-17T12:04:16;2.50;;;0.30;;
4758;SDS011;2393;50.560;12.636;2022-10-17T12:07:04;2.00;;;0.60;;
4758;SDS011;2393;50.560;12.636;2022-10-17T12:09:54;3.17;;;1.23;;
4758;SDS011;2393;50.560;12.636;2022-10-17T12:12:26;0.50;;;0.40;;
4758;SDS011;2393;50.560;12.636;2022-10-17T12:15:25;3.33;;;0.37;;
4758;SDS011;2393;50.560;12.636;2022-10-17T12:17:56;0.50;;;0.40;;
4758;SDS011;2393;50.560;12.636;2022-10-17T12:20:28;0.50;;;0.40;;
4758;SDS011;2393;50.560;12.636;2022-10-17T12:23:05;1.13;;;0.40;;
4758;SDS011;2393;50.560;12.636;2022-10-17T12:25:49;0.40;;;0.40;;
4758;SDS011;2393;50.560;12.636;2022-10-17T12:28:29;0.50;;;0.40;;
4758;SDS011;2393;50.560;12.636;2022-10-17T12:30:59;2.57;;;0.60;;
4758;SDS011;2393;50.560;12.636;2022-10-17T12:33:32;1.47;;;0.40;;
4758;SDS011;2393;50.560;12.636;2022-10-17T12:42:45;0.50;;;0.50;;
4758;SDS011;2393;50.560;12.636;2022-10-17T12:51:27;0.57;;;0.40;;
4758;SDS011;2393;50.560;12.636;2022-10-17T12:54:07;0.40;;;0.30;;
4758;SDS011;2393;50.560;12.636;2022-10-17T12:56:39;0.40;;;0.30;;
4758;SDS011;2393;50.560;12.636;2022-10-17T12:59:13;0.87;;;0.40;;
4758;SDS011;2393;50.560;12.636;2022-10-17T13:01:43;0.90;;;0.27;;
4758;SDS011;2393;50.560;12.636;2022-10-17T13:04:13;0.50;;;0.43;;
4758;SDS011;2393;50.560;12.636;2022-10-17T13:06:44;0.47;;;0.47;;
4758;SDS011;2393;50.560;12.636;2022-10-17T13:09:18;0.40;;;0.40;;
4758;SDS011;2393;50.560;12.636;2022-10-17T13:11:51;0.40;;;0.40;;
4758;SDS011;2393;50.560;12.636;2022-10-17T13:14:21;0.50;;;0.30;;
4758;SDS011;2393;50.560;12.636;2022-10-17T13:16:51;0.53;;;0.50;;
4758;SDS011;2393;50.560;12.636;2022-10-17T13:19:22;1.40;;;0.30;;
4758;SDS011;2393;50.560;12.636;2022-10-17T13:21:52;1.57;;;0.60;;
4758;SDS011;2393;50.560;12.636;2022-10-17T13:24:29;0.93;;;0.50;;
4758;SDS011;2393;50.560;12.636;2022-10-17T13:26:59;0.50;;;0.43;;
4758;SDS011;2393;50.560;12.636;2022-10-17T13:29:29;0.30;;;0.30;;
4758;SDS011;2393;50.560;12.636;2022-10-17T13:31:59;0.40;;;0.30;;
4758;SDS011;2393;50.560;12.636;2022-10-17T13:34:30;0.43;;;0.43;;
4758;SDS011;2393;50.560;12.636;2022-10-17T13:37:00;3.80;;;0.40;;
4758;SDS011;2393;50.560;12.636;2022-10-17T13:39:33;8.23;;;0.53;;
4758;SDS011;2393;50.560;12.636;2022-10-17T13:42:23;1.60;;;0.40;;
4758;SDS011;2393;50.560;12.636;2022-10-17T13:44:56;0.43;;;0.43;;
4758;SDS011;2393;50.560;12.636;2022-10-17T13:47:26;0.50;;;0.50;;
4758;SDS011;2393;50.560;12.636;2022-10-17T13:49:56;0.40;;;0.40;;
4758;SDS011;2393;50.560;12.636;2022-10-17T13:52:26;0.47;;;0.47;;
4758;SDS011;2393;50.560;12.636;2022-10-17T13:55:54;1.53;;;0.60;;
4758;SDS011;2393;50.560;12.636;2022-10-17T13:58:59;1.70;;;0.53;;
4758;SDS011;2393;50.560;12.636;2022-10-17T14:01:47;0.77;;;0.53;;
4758;SDS011;2393;50.560;12.636;2022-10-17T14:04:17;0.70;;;0.70;;
4758;SDS011;2393;50.560;12.636;2022-10-17T14:06:47;0.70;;;0.60;;
4758;SDS011;2393;50.560;12.636;2022-10-17T14:09:26;0.40;;;0.40;;
4758;SDS011;2393;50.560;12.636;2022-10-17T14:12:27;0.40;;;0.40;;
4758;SDS011;2393;50.560;12.636;2022-10-17T14:14:56;0.43;;;0.40;;
4758;SDS011;2393;50.560;12.636;2022-10-17T14:20:34;1.90;;;0.60;;
4758;SDS011;2393;50.560;12.636;2022-10-17T14:23:49;1.73;;;0.50;;
4758;SDS011;2393;50.560;12.636;2022-10-17T14:26:22;0.60;;;0.60;;
4758;SDS011;2393;50.560;12.636;2022-10-17T14:29:01;1.53;;;0.70;;
4758;SDS011;2393;50.560;12.636;2022-10-17T14:31:34;0.80;;;0.80;;
4758;SDS011;2393;50.560;12.636;2022-10-17T14:34:18;1.47;;;1.37;;
4758;SDS011;2393;50.560;12.636;2022-10-17T14:36:50;1.23;;;0.93;;
4758;SDS011;2393;50.560;12.636;2022-10-17T14:39:21;1.00;;;0.90;;
4758;SDS011;2393;50.560;12.636;2022-10-17T14:41:51;1.03;;;0.60;;
4758;SDS011;2393;50.560;12.636;2022-10-17T14:44:21;0.70;;;0.70;;
4758;SDS011;2393;50.560;12.636;2022-10-17T14:46:53;0.73;;;0.73;;
4758;SDS011;2393;50.560;12.636;2022-10-17T14:49:31;1.10;;;1.00;;
4758;SDS011;2393;50.560;12.636;2022-10-17T14:52:09;1.87;;;0.80;;
4758;SDS011;2393;50.560;12.636;2022-10-17T14:54:56;3.07;;;0.60;;
4758;SDS011;2393;50.560;12.636;2022-10-17T14:57:27;7.43;;;1.40;;
4758;SDS011;2393;50.560;12.636;2022-10-17T15:00:08;0.80;;;0.60;;
4758;SDS011;2393;50.560;12.636;2022-10-17T15:02:39;8.90;;;1.30;;
4758;SDS011;2393;50.560;12.636;2022-10-17T15:05:10;2.37;;;1.20;;
4758;SDS011;2393;50.560;12.636;2022-10-17T15:07:39;1.30;;;1.27;;
4758;SDS011;2393;50.560;12.636;2022-10-17T15:10:10;2.50;;;0.80;;
4758;SDS011;2393;50.560;12.636;2022-10-17T15:12:51;0.90;;;0.90;;
4758;SDS011;2393;50.560;12.636;2022-10-17T15:15:25;2.50;;;1.40;;
4758;SDS011;2393;50.560;12.636;2022-10-17T15:17:54;1.37;;;1.27;;
4758;SDS011;2393;50.560;12.636;2022-10-17T15:20:24;1.07;;;0.97;;
4758;SDS011;2393;50.560;12.636;2022-10-17T15:22:56;0.90;;;0.90;;
4758;SDS011;2393;50.560;12.636;2022-10-17T15:25:25;11.97;;;1.30;;
4758;SDS011;2393;50.560;12.636;2022-10-17T15:27:55;1.80;;;1.50;;
4758;SDS011;2393;50.560;12.636;2022-10-17T15:30:24;3.00;;;1.40;;
4758;SDS011;2393;50.560;12.636;2022-10-17T15:32:54;1.73;;;1.73;;
4758;SDS011;2393;50.560;12.636;2022-10-17T15:35:24;1.03;;;1.03;;
4758;SDS011;2393;50.560;12.636;2022-10-17T15:37:53;3.07;;;1.63;;
4758;SDS011;2393;50.560;12.636;2022-10-17T15:40:26;1.73;;;1.60;;
4758;SDS011;2393;50.560;12.636;2022-10-17T15:42:55;1.90;;;1.80;;
4758;SDS011;2393;50.560;12.636;2022-10-17T15:45:23;1.70;;;1.60;;
4758;SDS011;2393;50.560;12.636;2022-10-17T15:47:52;1.50;;;1.40;;
4758;SDS011;2393;50.560;12.636;2022-10-17T15:50:21;1.70;;;1.60;;
4758;SDS011;2393;50.560;12.636;2022-10-17T15:52:51;4.30;;;1.50;;
4758;SDS011;2393;50.560;12.636;2022-10-17T15:55:19;2.00;;;1.30;;
4758;SDS011;2393;50.560;12.636;2022-10-17T15:57:47;3.20;;;1.77;;
4758;SDS011;2393;50.560;12.636;2022-10-17T16:00:17;2.13;;;1.97;;
4758;SDS011;2393;50.560;12.636;2022-10-17T16:02:46;2.00;;;1.90;;
4758;SDS011;2393;50.560;12.636;2022-10-17T16:05:16;2.73;;;2.03;;
4758;SDS011;2393;50.560;12.636;2022-10-17T16:07:48;5.77;;;1.97;;
4758;SDS011;2393;50.560;12.636;2022-10-17T16:10:18;1.60;;;1.50;;